Time;durP1;ratioP1;P1;durP2;ratioP2;P2;SDS_P1;SDS_P2;PMS_P1;PMS_P2;Temp;Humidity;BMP_temperature;BMP_pressure;BME280_temperature;BME280_humidity;BME280_pressure;Samples;Min_cycle;Max_cycle;Signal;HPM_P1;HPM_P2
2022/09/07 00:02:00;;;;;;;0.50;0.43;;;18.20;99.90;;;;;;5033229;28;20713;-81
2022/09/07 00:04:27;;;;;;;0.90;0.60;;;18.20;99.90;;;;;;5032817;28;20084;-81
2022/09/07 00:06:54;;;;;;;0.45;0.38;;;18.20;99.90;;;;;;5049925;28;20536;-81
2022/09/07 00:09:20;;;;;;;0.93;0.68;;;18.20;99.90;;;;;;5032971;28;20124;-81
2022/09/07 00:11:47;;;;;;;0.52;0.40;;;18.20;99.90;;;;;;5033152;28;20517;-81
2022/09/07 00:14:14;;;;;;;0.57;0.57;;;18.10;99.90;;;;;;5033099;28;20132;-81
2022/09/07 00:16:40;;;;;;;0.60;0.60;;;18.10;99.90;;;;;;5048957;28;20107;-81
2022/09/07 00:19:07;;;;;;;1.10;0.60;;;18.10;99.90;;;;;;5032984;28;20045;-81
2022/09/07 00:21:34;;;;;;;1.00;0.60;;;18.10;99.90;;;;;;5032868;28;20041;-81
2022/09/07 00:24:00;;;;;;;1.33;0.70;;;18.00;99.90;;;;;;5049281;28;20508;-81
2022/09/07 00:26:29;;;;;;;0.73;0.65;;;18.00;99.90;;;;;;5032870;28;20045;-81
2022/09/07 00:28:58;;;;;;;0.65;0.50;;;17.90;99.90;;;;;;5065946;28;20064;-81
2022/09/07 00:31:26;;;;;;;1.25;0.73;;;17.90;99.90;;;;;;5049121;28;20048;-81
2022/09/07 00:33:55;;;;;;;0.70;0.50;;;17.80;99.90;;;;;;5033190;28;20046;-81
2022/09/07 00:36:22;;;;;;;1.23;0.75;;;17.90;99.90;;;;;;5049270;28;20045;-81
2022/09/07 00:38:50;;;;;;;0.60;0.52;;;17.80;99.90;;;;;;5049052;28;20041;-81
2022/09/07 00:41:18;;;;;;;1.55;1.00;;;17.80;99.90;;;;;;5048940;28;20103;-81
2022/09/07 00:43:47;;;;;;;1.20;0.73;;;17.70;99.90;;;;;;5048735;28;20029;-81
2022/09/07 00:46:22;;;;;;;1.23;0.63;;;17.80;99.90;;;;;;5048939;28;20033;-81
2022/09/07 00:48:52;;;;;;;1.30;0.70;;;17.80;99.90;;;;;;5049045;28;20052;-81
2022/09/07 00:51:50;;;;;;;0.98;0.73;;;17.80;99.90;;;;;;5049045;28;20113;-81
2022/09/07 00:54:39;;;;;;;1.10;0.60;;;17.80;99.90;;;;;;5043660;28;20140;-81
2022/09/07 00:57:07;;;;;;;0.98;0.63;;;17.70;99.90;;;;;;5069330;28;20521;-81
2022/09/07 00:59:38;;;;;;;0.75;0.70;;;17.80;99.90;;;;;;5048983;28;20046;-81
2022/09/07 01:02:05;;;;;;;1.58;0.70;;;17.70;99.90;;;;;;5048868;28;20069;-81
2022/09/07 01:04:32;;;;;;;0.65;0.50;;;17.70;99.90;;;;;;5048690;28;20134;-81
2022/09/07 01:06:59;;;;;;;1.00;0.80;;;17.60;99.90;;;;;;5049166;28;20050;-81
2022/09/07 01:09:27;;;;;;;1.15;0.70;;;17.70;99.90;;;;;;5048745;28;20041;-81
2022/09/07 01:11:57;;;;;;;0.98;0.75;;;17.60;99.90;;;;;;5048845;28;20033;-81
2022/09/07 01:14:31;;;;;;;0.73;0.63;;;17.60;99.90;;;;;;5084153;28;20049;-82
2022/09/07 01:17:34;;;;;;;0.70;0.70;;;17.60;99.90;;;;;;5052537;28;20501;-81
2022/09/07 01:20:19;;;;;;;1.65;1.05;;;17.60;99.90;;;;;;5069428;28;20045;-81
2022/09/07 01:23:16;;;;;;;0.57;0.55;;;17.60;99.90;;;;;;5085641;28;20067;-81
2022/09/07 01:26:17;;;;;;;0.95;0.80;;;17.60;99.90;;;;;;5068581;28;20076;-81
2022/09/07 01:28:48;;;;;;;0.95;0.52;;;17.50;99.90;;;;;;5085217;28;20040;-81
2022/09/07 01:31:40;;;;;;;0.63;0.50;;;17.60;99.90;;;;;;5069064;28;20401;-81
2022/09/07 01:34:20;;;;;;;0.80;0.40;;;17.60;99.90;;;;;;5068801;28;20493;-82
2022/09/07 01:37:23;;;;;;;0.73;0.47;;;17.60;99.90;;;;;;5068291;28;20052;-81
2022/09/07 01:40:43;;;;;;;0.90;0.60;;;17.50;99.90;;;;;;5068561;28;20064;-81
2022/09/07 01:43:34;;;;;;;0.47;0.47;;;17.30;99.90;;;;;;5040646;28;20045;-80
2022/09/07 01:46:04;;;;;;;1.85;0.47;;;17.20;99.90;;;;;;5016060;28;20493;-82
2022/09/07 01:48:36;;;;;;;0.60;0.55;;;17.10;99.90;;;;;;5040435;28;20111;-82
2022/09/07 01:51:04;;;;;;;1.23;0.70;;;16.90;99.90;;;;;;5041148;28;20041;-82
2022/09/07 01:53:54;;;;;;;1.15;0.70;;;16.70;99.90;;;;;;5051831;28;20128;-83
2022/09/07 01:56:30;;;;;;;0.75;0.55;;;16.50;99.90;;;;;;5042025;28;20048;-82
2022/09/07 01:59:03;;;;;;;0.57;0.43;;;16.40;99.90;;;;;;5068469;28;20037;-82
2022/09/07 02:01:42;;;;;;;0.68;0.50;;;16.40;99.90;;;;;;5051807;28;20073;-82
2022/09/07 02:04:27;;;;;;;0.68;0.55;;;16.40;99.90;;;;;;5051771;28;20033;-82
2022/09/07 02:07:16;;;;;;;0.57;0.45;;;16.40;99.90;;;;;;5051754;28;20057;-81
2022/09/07 02:09:50;;;;;;;1.27;0.80;;;16.40;99.90;;;;;;5051587;28;20059;-82
2022/09/07 02:12:23;;;;;;;1.20;0.80;;;16.30;99.90;;;;;;5051725;28;20528;-82
2022/09/07 02:14:58;;;;;;;1.05;0.68;;;16.30;99.90;;;;;;5049048;28;20044;-82
2022/09/07 02:17:32;;;;;;;0.88;0.60;;;16.30;99.90;;;;;;5032138;28;20434;-82
2022/09/07 02:20:25;;;;;;;0.70;0.45;;;16.40;99.90;;;;;;5031778;28;20037;-81
2022/09/07 02:22:57;;;;;;;0.73;0.50;;;16.30;99.90;;;;;;5025165;28;20052;-81
2022/09/07 02:25:28;;;;;;;1.33;0.93;;;16.30;99.90;;;;;;5031907;28;20080;-81
2022/09/07 02:28:16;;;;;;;1.08;0.40;;;16.40;99.90;;;;;;5047824;28;20046;-82
2022/09/07 02:30:43;;;;;;;0.80;0.52;;;16.40;99.90;;;;;;5031368;28;20088;-82
2022/09/07 02:33:10;;;;;;;0.50;0.50;;;16.40;99.90;;;;;;4999712;28;20046;-82
2022/09/07 02:35:37;;;;;;;0.57;0.50;;;16.40;99.90;;;;;;5047468;28;20468;-82
2022/09/07 02:38:05;;;;;;;0.70;0.55;;;16.40;99.90;;;;;;5029210;28;20038;-81
2022/09/07 02:40:33;;;;;;;0.60;0.60;;;16.40;99.90;;;;;;5031216;28;20490;-81
2022/09/07 02:43:04;;;;;;;1.08;0.57;;;16.50;99.90;;;;;;5030985;28;20504;-81
2022/09/07 02:46:15;;;;;;;0.65;0.60;;;16.50;99.90;;;;;;5031142;28;20084;-81
2022/09/07 02:49:07;;;;;;;0.88;0.68;;;16.60;99.90;;;;;;5032151;28;20149;-81
2022/09/07 02:51:48;;;;;;;0.55;0.50;;;16.50;99.90;;;;;;5047822;28;20038;-81
2022/09/07 02:54:34;;;;;;;0.98;0.60;;;16.60;99.90;;;;;;5047589;28;20081;-81
2022/09/07 02:57:11;;;;;;;0.77;0.55;;;16.60;99.90;;;;;;5047055;28;20084;-82
2022/09/07 03:00:01;;;;;;;0.73;0.60;;;16.60;99.90;;;;;;5047281;28;20046;-81
2022/09/07 03:03:03;;;;;;;1.13;0.60;;;16.60;99.90;;;;;;5031016;28;20041;-82
2022/09/07 03:05:46;;;;;;;0.47;0.45;;;16.60;99.90;;;;;;5024390;28;20046;-82
2022/09/07 03:08:21;;;;;;;0.40;0.40;;;16.60;99.90;;;;;;5054156;28;20045;-82
2022/09/07 03:10:49;;;;;;;0.30;0.30;;;16.60;99.90;;;;;;5066706;28;20195;-81
2022/09/07 03:13:21;;;;;;;0.63;0.40;;;16.70;99.90;;;;;;5050894;28;20044;-82
2022/09/07 03:15:48;;;;;;;0.70;0.47;;;16.60;99.90;;;;;;5050453;28;20147;-82
2022/09/07 03:18:15;;;;;;;0.50;0.43;;;16.70;99.90;;;;;;5033860;28;20045;-82
2022/09/07 03:20:42;;;;;;;1.02;0.60;;;16.70;99.90;;;;;;5034185;28;20042;-82
2022/09/07 03:23:08;;;;;;;1.33;0.90;;;16.60;99.90;;;;;;5050228;28;20098;-81
2022/09/07 03:25:35;;;;;;;1.33;0.70;;;16.60;99.90;;;;;;5034304;28;20041;-82
2022/09/07 03:28:02;;;;;;;1.17;0.70;;;16.60;99.90;;;;;;5033525;28;20127;-82
2022/09/07 03:30:29;;;;;;;1.23;1.13;;;16.60;99.90;;;;;;5034200;28;20081;-81
2022/09/07 03:32:56;;;;;;;1.52;0.90;;;16.60;99.90;;;;;;5066960;28;20042;-82
2022/09/07 03:35:22;;;;;;;1.42;0.88;;;16.60;99.90;;;;;;5050065;28;20049;-81
2022/09/07 03:37:49;;;;;;;1.20;0.70;;;16.60;99.90;;;;;;5082240;28;20040;-82
2022/09/07 03:40:16;;;;;;;1.05;0.70;;;16.60;99.90;;;;;;5066457;28;20080;-82
2022/09/07 03:42:48;;;;;;;0.80;0.50;;;16.50;99.90;;;;;;5082868;28;20132;-82
2022/09/07 03:45:15;;;;;;;1.13;0.77;;;16.50;99.90;;;;;;5049748;28;20041;-82
2022/09/07 03:47:45;;;;;;;1.33;0.85;;;16.50;99.90;;;;;;5066210;28;20516;-82
2022/09/07 03:50:12;;;;;;;0.60;0.57;;;16.50;99.90;;;;;;5046474;28;20060;-82
2022/09/07 03:52:38;;;;;;;0.80;0.60;;;16.40;99.90;;;;;;5046613;28;20046;-82
2022/09/07 03:55:05;;;;;;;1.02;0.82;;;16.40;99.90;;;;;;5045931;28;20041;-82
2022/09/07 03:57:32;;;;;;;1.20;0.80;;;16.50;99.90;;;;;;5029886;28;20076;-82
2022/09/07 03:59:59;;;;;;;0.90;0.70;;;16.40;99.90;;;;;;5029470;28;20124;-82
2022/09/07 04:02:25;;;;;;;1.38;0.90;;;16.40;99.90;;;;;;5049502;28;20045;-82
2022/09/07 04:04:52;;;;;;;1.02;0.77;;;16.40;99.90;;;;;;5049038;28;20413;-82
2022/09/07 04:07:19;;;;;;;0.65;0.55;;;16.40;99.90;;;;;;5049235;28;20053;-81
2022/09/07 04:09:45;;;;;;;0.73;0.60;;;16.40;99.90;;;;;;5033171;28;20065;-82
2022/09/07 04:12:12;;;;;;;0.60;0.43;;;16.40;99.90;;;;;;5029213;28;20552;-82
2022/09/07 04:14:39;;;;;;;1.13;0.70;;;16.40;99.90;;;;;;4997580;28;20502;-82
2022/09/07 04:17:06;;;;;;;1.17;0.65;;;16.40;99.90;;;;;;4997097;28;20049;-82
2022/09/07 04:19:32;;;;;;;1.00;0.65;;;16.40;99.90;;;;;;4997231;28;20042;-82
2022/09/07 04:21:59;;;;;;;0.98;0.82;;;16.40;99.90;;;;;;4997340;28;20045;-81
2022/09/07 04:24:26;;;;;;;1.13;0.73;;;16.40;99.90;;;;;;5013479;28;20042;-82
2022/09/07 04:26:53;;;;;;;0.80;0.70;;;16.30;99.90;;;;;;5013012;28;20073;-82
2022/09/07 04:29:19;;;;;;;1.27;0.57;;;16.40;99.90;;;;;;5007206;28;20033;-82
2022/09/07 04:31:46;;;;;;;0.77;0.60;;;16.30;99.90;;;;;;5049406;28;20045;-82
2022/09/07 04:34:13;;;;;;;1.30;0.75;;;16.30;99.90;;;;;;5032647;28;20030;-82
2022/09/07 04:36:40;;;;;;;0.60;0.50;;;16.30;99.90;;;;;;5032833;28;20481;-82
2022/09/07 04:39:06;;;;;;;0.68;0.60;;;16.30;99.90;;;;;;5048665;28;20048;-82
2022/09/07 04:41:33;;;;;;;1.55;0.82;;;16.20;99.90;;;;;;5032874;28;20052;-82
2022/09/07 04:44:02;;;;;;;0.52;0.50;;;16.30;99.90;;;;;;5049021;28;20045;-82
2022/09/07 04:46:32;;;;;;;1.00;0.77;;;16.30;99.90;;;;;;5048956;28;20036;-81
2022/09/07 04:49:04;;;;;;;1.50;0.85;;;16.20;99.90;;;;;;5050323;28;20052;-82
2022/09/07 04:51:32;;;;;;;0.90;0.80;;;16.30;99.90;;;;;;5052836;28;20045;-82
2022/09/07 04:54:00;;;;;;;1.85;0.98;;;16.20;99.90;;;;;;5036523;28;20103;-82
2022/09/07 04:56:27;;;;;;;1.17;0.80;;;16.20;99.90;;;;;;5086090;28;20045;-82
2022/09/07 04:58:55;;;;;;;1.60;0.93;;;16.20;99.90;;;;;;5052970;28;20037;-82
2022/09/07 05:01:24;;;;;;;1.10;0.82;;;16.20;99.90;;;;;;5069096;28;20049;-82
2022/09/07 05:03:51;;;;;;;0.93;0.52;;;16.20;99.90;;;;;;5053016;28;20413;-82
2022/09/07 05:06:19;;;;;;;1.40;0.90;;;16.20;99.90;;;;;;5052336;28;20045;-81
2022/09/07 05:08:49;;;;;;;1.00;0.73;;;16.20;99.90;;;;;;5057567;28;20922;-82
2022/09/07 05:11:16;;;;;;;0.93;0.65;;;16.20;99.90;;;;;;5045872;28;20565;-82
2022/09/07 05:13:43;;;;;;;0.95;0.80;;;16.20;99.90;;;;;;5036157;28;20045;-82
2022/09/07 05:16:12;;;;;;;1.10;0.68;;;16.20;99.90;;;;;;5052300;28;20034;-82
2022/09/07 05:18:39;;;;;;;1.27;0.85;;;16.20;99.90;;;;;;5069137;28;20087;-81
2022/09/07 05:21:14;;;;;;;1.10;0.70;;;16.20;99.90;;;;;;5052248;28;20136;-83
2022/09/07 05:23:42;;;;;;;0.80;0.70;;;16.20;99.90;;;;;;5053551;28;20504;-82
2022/09/07 05:26:10;;;;;;;0.88;0.70;;;16.20;99.90;;;;;;5068615;28;20102;-82
2022/09/07 05:28:37;;;;;;;0.95;0.70;;;16.20;99.90;;;;;;5052457;28;20038;-82
2022/09/07 05:31:22;;;;;;;0.98;0.60;;;16.20;99.90;;;;;;5052045;28;20667;-82
2022/09/07 05:33:51;;;;;;;1.05;0.70;;;16.20;99.90;;;;;;5016230;28;20092;-82
2022/09/07 05:36:19;;;;;;;1.08;0.68;;;16.30;99.90;;;;;;5016448;28;20518;-82
2022/09/07 05:38:46;;;;;;;1.17;0.80;;;16.30;99.90;;;;;;5049250;28;20073;-82
2022/09/07 05:41:19;;;;;;;0.93;0.82;;;16.30;99.90;;;;;;5017397;28;20576;-82
2022/09/07 05:43:47;;;;;;;0.60;0.55;;;16.30;99.90;;;;;;5046470;28;20041;-82
2022/09/07 05:46:15;;;;;;;0.82;0.70;;;16.30;99.90;;;;;;5039975;28;20030;-82
2022/09/07 05:48:43;;;;;;;0.63;0.60;;;16.30;99.90;;;;;;5038420;28;20041;-82
2022/09/07 05:51:12;;;;;;;1.08;0.85;;;16.40;99.90;;;;;;5023660;28;20037;-82
2022/09/07 05:53:41;;;;;;;0.88;0.60;;;16.40;99.90;;;;;;5035931;28;20128;-82
2022/09/07 05:56:09;;;;;;;0.70;0.60;;;16.40;99.90;;;;;;5051508;28;20467;-83
2022/09/07 05:58:36;;;;;;;0.82;0.70;;;16.40;99.90;;;;;;5051736;28;20037;-82
2022/09/07 06:01:05;;;;;;;0.95;0.63;;;16.40;99.90;;;;;;5051217;28;20041;-84
2022/09/07 06:03:34;;;;;;;1.35;1.02;;;16.50;99.90;;;;;;5041378;28;20045;-81
2022/09/07 06:06:02;;;;;;;1.02;0.70;;;16.50;99.90;;;;;;5051427;28;20053;-82
2022/09/07 06:08:30;;;;;;;1.35;0.82;;;16.50;99.90;;;;;;5037487;28;20521;-82
2022/09/07 06:10:58;;;;;;;0.50;0.50;;;16.40;99.90;;;;;;5037035;28;20406;-82
2022/09/07 06:13:25;;;;;;;1.27;0.90;;;16.40;99.90;;;;;;5031706;28;20092;-82
2022/09/07 06:15:52;;;;;;;1.13;0.82;;;16.40;99.90;;;;;;5032585;28;20041;-82
2022/09/07 06:18:19;;;;;;;1.55;0.90;;;16.40;99.90;;;;;;5031455;28;20121;-82
2022/09/07 06:20:45;;;;;;;1.13;1.00;;;16.40;99.90;;;;;;5036925;28;20042;-82
2022/09/07 06:23:12;;;;;;;1.25;0.85;;;16.50;99.90;;;;;;5050814;28;20112;-82
2022/09/07 06:25:47;;;;;;;0.82;0.70;;;16.50;99.90;;;;;;5018747;28;20444;-82
2022/09/07 06:28:13;;;;;;;0.75;0.63;;;16.50;99.90;;;;;;5051138;28;20041;-82
2022/09/07 06:30:40;;;;;;;1.23;0.80;;;16.50;99.90;;;;;;5034443;28;20038;-82
2022/09/07 06:33:07;;;;;;;0.82;0.50;;;16.50;99.90;;;;;;5034581;28;20048;-82
2022/09/07 06:35:33;;;;;;;1.27;0.77;;;16.60;99.90;;;;;;5030948;28;20038;-84
2022/09/07 06:38:00;;;;;;;1.23;0.77;;;16.60;99.90;;;;;;5002780;28;20033;-83
2022/09/07 06:40:27;;;;;;;0.60;0.50;;;16.70;99.90;;;;;;5027839;28;20054;-83
2022/09/07 06:42:53;;;;;;;1.40;0.88;;;16.70;99.90;;;;;;5015053;28;20070;-83
2022/09/07 06:45:20;;;;;;;0.93;0.80;;;16.70;99.90;;;;;;4998844;28;20398;-82
2022/09/07 06:47:47;;;;;;;1.70;1.10;;;16.80;99.90;;;;;;4998593;28;20132;-83
2022/09/07 06:50:14;;;;;;;1.08;0.75;;;16.80;99.90;;;;;;4998548;28;20501;-83
2022/09/07 06:52:41;;;;;;;1.17;0.70;;;16.90;99.90;;;;;;5014869;28;20408;-82
2022/09/07 06:55:08;;;;;;;0.95;0.63;;;17.00;99.90;;;;;;5015182;28;20053;-83
2022/09/07 06:57:35;;;;;;;0.98;0.70;;;17.00;99.90;;;;;;5030099;28;20037;-82
2022/09/07 07:00:02;;;;;;;1.38;0.88;;;17.10;99.90;;;;;;5034633;28;20141;-83
2022/09/07 07:02:29;;;;;;;1.33;0.85;;;17.10;99.90;;;;;;5050498;28;20045;-83
2022/09/07 07:04:55;;;;;;;1.15;0.80;;;17.20;99.90;;;;;;5034130;28;20103;-83
2022/09/07 07:07:22;;;;;;;1.27;0.93;;;17.20;99.90;;;;;;5033743;28;20056;-83
2022/09/07 07:09:49;;;;;;;1.35;0.75;;;17.30;99.90;;;;;;5050448;28;20034;-82
2022/09/07 07:12:16;;;;;;;1.30;0.77;;;17.30;99.90;;;;;;5033212;28;20436;-82
2022/09/07 07:14:42;;;;;;;1.45;0.88;;;17.40;99.90;;;;;;5034149;28;20047;-83
2022/09/07 07:17:09;;;;;;;1.38;0.80;;;17.50;99.90;;;;;;5033867;28;20077;-83
2022/09/07 07:19:36;;;;;;;0.60;0.60;;;17.60;99.90;;;;;;5049872;28;20050;-83
2022/09/07 07:22:02;;;;;;;1.73;1.17;;;17.60;99.90;;;;;;5033841;28;20548;-83
2022/09/07 07:24:29;;;;;;;1.00;0.82;;;17.70;99.90;;;;;;5033591;28;20060;-83
2022/09/07 07:26:56;;;;;;;1.25;0.75;;;17.70;99.90;;;;;;5033993;28;20045;-83
2022/09/07 07:29:23;;;;;;;1.02;0.63;;;17.70;99.90;;;;;;5049762;28;20088;-83
2022/09/07 07:31:49;;;;;;;0.95;0.63;;;17.60;99.90;;;;;;5033667;28;20038;-83
2022/09/07 07:34:16;;;;;;;1.42;0.90;;;17.70;99.90;;;;;;5033816;28;20052;-84
2022/09/07 07:36:43;;;;;;;1.20;0.90;;;17.60;99.90;;;;;;5050183;28;20045;-83
2022/09/07 07:39:10;;;;;;;0.88;0.70;;;17.60;99.90;;;;;;5033592;28;20038;-83
2022/09/07 07:41:36;;;;;;;0.98;0.70;;;17.60;99.90;;;;;;5033267;28;20052;-83
2022/09/07 07:44:03;;;;;;;0.80;0.70;;;17.60;99.90;;;;;;5033960;28;20413;-83
2022/09/07 07:46:31;;;;;;;1.10;0.70;;;17.60;99.90;;;;;;5049354;28;20513;-83
2022/09/07 07:48:57;;;;;;;1.20;0.80;;;17.60;99.90;;;;;;5033675;28;20041;-83
2022/09/07 07:51:24;;;;;;;1.38;0.88;;;17.60;99.90;;;;;;5033470;28;20378;-83
2022/09/07 07:53:51;;;;;;;1.60;0.95;;;17.50;99.90;;;;;;5049843;28;20136;-83
2022/09/07 07:56:18;;;;;;;1.05;0.75;;;17.60;99.90;;;;;;5049565;28;20414;-83
2022/09/07 07:58:46;;;;;;;0.98;0.68;;;17.60;99.90;;;;;;5049076;28;20508;-83
2022/09/07 08:01:16;;;;;;;1.45;0.85;;;17.60;99.90;;;;;;5075961;28;20052;-83
2022/09/07 08:03:45;;;;;;;1.48;1.10;;;17.70;99.90;;;;;;5049267;28;20046;-83
2022/09/07 08:06:17;;;;;;;1.90;1.05;;;17.70;99.90;;;;;;5013840;28;20160;-83
2022/09/07 08:08:45;;;;;;;0.90;0.82;;;17.70;99.90;;;;;;5045742;28;20489;-83
2022/09/07 08:11:15;;;;;;;0.50;0.50;;;17.80;99.90;;;;;;5029615;28;20071;-83
2022/09/07 08:13:44;;;;;;;1.48;1.00;;;17.90;99.90;;;;;;5045638;28;20461;-83
2022/09/07 08:16:11;;;;;;;1.48;0.90;;;17.90;99.90;;;;;;5029500;28;20052;-83
2022/09/07 08:18:38;;;;;;;1.50;0.88;;;17.90;99.90;;;;;;5045451;28;20069;-82
2022/09/07 08:21:08;;;;;;;1.27;0.98;;;17.90;99.90;;;;;;5045760;28;20399;-83
2022/09/07 08:23:36;;;;;;;1.40;0.90;;;18.00;99.90;;;;;;5029393;28;20489;-83
2022/09/07 08:26:03;;;;;;;1.50;0.93;;;18.00;99.90;;;;;;5047570;28;20120;-83
2022/09/07 08:28:32;;;;;;;1.02;0.80;;;18.00;99.90;;;;;;5081829;28;20469;-83
2022/09/07 08:31:04;;;;;;;1.40;0.95;;;17.90;99.90;;;;;;5082132;28;20556;-83
2022/09/07 08:33:32;;;;;;;1.30;0.85;;;18.00;99.90;;;;;;5082211;28;20099;-83
2022/09/07 08:36:06;;;;;;;0.82;0.55;;;18.00;99.90;;;;;;5049461;28;20037;-83
2022/09/07 08:38:34;;;;;;;1.00;0.70;;;18.10;99.90;;;;;;5048553;28;20485;-83
2022/09/07 08:41:02;;;;;;;0.95;0.60;;;18.10;99.90;;;;;;5032856;28;20033;-83
2022/09/07 08:43:58;;;;;;;0.88;0.65;;;18.20;99.90;;;;;;5082079;28;20113;-83
2022/09/07 08:46:43;;;;;;;0.70;0.60;;;18.20;99.90;;;;;;5048768;28;20037;-84
2022/09/07 08:49:40;;;;;;;0.80;0.60;;;18.20;99.90;;;;;;5048869;28;20497;-83
2022/09/07 08:52:20;;;;;;;0.73;0.52;;;18.30;99.90;;;;;;5045494;28;20184;-83
2022/09/07 08:54:58;;;;;;;0.85;0.80;;;18.30;99.90;;;;;;5045354;28;20045;-83
2022/09/07 08:57:30;;;;;;;1.08;0.65;;;18.30;99.90;;;;;;5029055;28;20038;-83
2022/09/07 09:00:13;;;;;;;0.88;0.75;;;18.40;99.90;;;;;;5045420;28;20042;-83
2022/09/07 09:02:40;;;;;;;0.82;0.60;;;18.50;99.90;;;;;;5045190;28;20072;-83
2022/09/07 09:05:22;;;;;;;0.90;0.60;;;18.50;99.90;;;;;;5029033;28;20050;-83
2022/09/07 09:07:48;;;;;;;1.05;0.70;;;18.70;99.90;;;;;;5045073;28;20050;-83
2022/09/07 09:10:39;;;;;;;0.85;0.60;;;18.80;99.90;;;;;;5029737;28;20563;-83
2022/09/07 09:13:23;;;;;;;0.98;0.77;;;18.90;99.90;;;;;;5048435;28;20100;-83
2022/09/07 09:16:07;;;;;;;1.00;0.70;;;18.90;99.90;;;;;;5048178;28;20111;-83
2022/09/07 09:18:49;;;;;;;1.17;0.80;;;18.80;99.90;;;;;;5048342;28;20052;-83
2022/09/07 09:21:18;;;;;;;1.02;0.73;;;18.80;99.90;;;;;;5048596;28;20507;-83
2022/09/07 09:23:49;;;;;;;0.82;0.68;;;18.80;99.90;;;;;;5048233;28;20536;-81
2022/09/07 09:26:19;;;;;;;1.15;0.73;;;18.80;99.90;;;;;;5064863;28;20037;-83
2022/09/07 09:28:46;;;;;;;1.02;0.70;;;18.70;99.90;;;;;;5062276;28;20068;-82
2022/09/07 09:31:19;;;;;;;0.82;0.73;;;18.80;99.90;;;;;;5038919;28;20041;-83
2022/09/07 09:34:21;;;;;;;1.48;0.90;;;18.80;99.90;;;;;;5046231;28;20437;-83
2022/09/07 09:36:53;;;;;;;1.30;0.80;;;18.90;99.90;;;;;;5011706;28;20057;-83
2022/09/07 09:39:32;;;;;;;1.00;0.68;;;18.90;99.90;;;;;;5040743;28;20057;-83
2022/09/07 09:42:14;;;;;;;1.70;0.93;;;19.00;99.90;;;;;;5052358;28;20045;-83
2022/09/07 09:44:42;;;;;;;1.30;0.80;;;19.10;99.90;;;;;;5065448;28;20038;-83
2022/09/07 09:47:31;;;;;;;1.77;1.33;;;19.10;99.90;;;;;;5027518;28;20045;-83
2022/09/07 09:50:05;;;;;;;1.10;0.65;;;19.20;99.90;;;;;;5050661;28;20460;-82
2022/09/07 09:52:35;;;;;;;1.85;1.23;;;19.30;99.90;;;;;;5052190;28;20096;-83
2022/09/07 09:55:05;;;;;;;0.70;0.57;;;19.30;99.90;;;;;;5065621;28;20044;-82
2022/09/07 09:57:57;;;;;;;1.30;0.80;;;19.40;99.90;;;;;;5051375;28;20037;-83
2022/09/07 10:00:26;;;;;;;2.25;1.42;;;19.50;99.90;;;;;;5051629;28;20048;-82
2022/09/07 10:03:13;;;;;;;1.38;0.93;;;19.60;99.90;;;;;;5049486;28;20049;-83
2022/09/07 10:05:43;;;;;;;1.38;0.90;;;19.70;99.90;;;;;;5032448;28;20520;-82
2022/09/07 10:08:27;;;;;;;1.38;0.80;;;19.90;99.90;;;;;;5051748;28;20073;-82
2022/09/07 10:11:08;;;;;;;1.95;1.33;;;19.90;99.90;;;;;;5066594;28;20041;-83
2022/09/07 10:13:42;;;;;;;2.00;1.20;;;19.90;99.90;;;;;;5040590;28;20037;-82
2022/09/07 10:16:10;;;;;;;1.65;1.02;;;20.00;99.90;;;;;;5051384;28;20512;-83
2022/09/07 10:18:55;;;;;;;1.58;1.02;;;20.00;99.90;;;;;;5033111;28;20096;-83
2022/09/07 10:21:28;;;;;;;1.27;0.77;;;20.10;99.90;;;;;;5084325;28;20056;-82
2022/09/07 10:24:12;;;;;;;2.40;1.52;;;20.10;99.90;;;;;;5054198;28;20036;-83
2022/09/07 10:26:40;;;;;;;1.65;1.10;;;20.10;99.90;;;;;;5051864;28;20049;-83
2022/09/07 10:29:25;;;;;;;1.85;1.13;;;20.00;99.90;;;;;;5031966;28;20037;-83
2022/09/07 10:32:16;;;;;;;1.42;1.00;;;20.00;99.90;;;;;;5058583;28;20135;-82
2022/09/07 10:35:22;;;;;;;1.30;0.93;;;20.10;99.90;;;;;;5046817;28;20049;-83
2022/09/07 10:37:54;;;;;;;1.95;1.30;;;20.10;99.90;;;;;;5047233;28;20560;-82
2022/09/07 10:40:27;;;;;;;1.35;1.00;;;20.20;99.90;;;;;;5066127;28;20045;-83
2022/09/07 10:43:14;;;;;;;2.00;1.30;;;20.30;99.90;;;;;;5066106;28;20401;-82
2022/09/07 10:46:06;;;;;;;1.75;1.00;;;20.40;99.90;;;;;;5047581;28;20072;-83
2022/09/07 10:49:03;;;;;;;1.67;1.23;;;20.50;99.90;;;;;;5049940;28;20041;-82
2022/09/07 10:51:58;;;;;;;1.65;1.08;;;20.60;99.90;;;;;;5030192;28;20053;-82
2022/09/07 10:55:09;;;;;;;1.95;1.25;;;20.70;99.90;;;;;;5064357;28;20053;-83
2022/09/07 10:58:13;;;;;;;1.92;1.30;;;20.70;99.90;;;;;;5033745;28;20057;-82
2022/09/07 11:01:19;;;;;;;1.45;0.93;;;20.70;99.90;;;;;;5068208;28;20127;-82
2022/09/07 11:04:04;;;;;;;;;;;20.60;99.90;;;;;;5050257;28;20033;-82
2022/09/07 11:06:36;;;;;;;1.48;1.08;;;20.50;99.90;;;;;;5057551;28;20306;-82
2022/09/07 11:09:37;;;;;;;1.35;1.05;;;20.50;99.90;;;;;;5030620;28;20129;-83
2022/09/07 11:12:20;;;;;;;1.80;1.15;;;20.40;99.90;;;;;;5046458;28;20061;-83
2022/09/07 11:15:17;;;;;;;1.25;0.93;;;20.40;99.90;;;;;;5040800;28;20120;-83
2022/09/07 11:17:50;;;;;;;1.17;0.90;;;20.50;99.90;;;;;;5071965;28;20039;-82
2022/09/07 11:20:30;;;;;;;1.92;1.13;;;20.50;99.90;;;;;;5066383;28;20079;-83
2022/09/07 11:22:57;;;;;;;1.48;1.10;;;20.50;99.90;;;;;;5046900;28;20557;-82
2022/09/07 11:25:35;;;;;;;1.70;1.02;;;20.50;99.90;;;;;;5049538;28;20128;-82
2022/09/07 11:28:13;;;;;;;1.45;0.82;;;20.70;99.90;;;;;;5074617;28;20205;-83
2022/09/07 11:30:46;;;;;;;1.63;1.00;;;21.00;99.90;;;;;;5047201;28;20038;-82
2022/09/07 11:33:26;;;;;;;1.20;0.90;;;21.30;99.90;;;;;;5063583;28;20041;-83
2022/09/07 11:36:01;;;;;;;1.20;0.80;;;21.40;99.90;;;;;;5049689;28;20046;-82
2022/09/07 11:38:39;;;;;;;1.52;0.95;;;21.40;99.90;;;;;;5055763;28;20479;-83
2022/09/07 11:41:17;;;;;;;1.25;0.88;;;21.30;99.90;;;;;;5064281;28;20481;-83
2022/09/07 11:44:23;;;;;;;2.10;1.30;;;21.20;99.90;;;;;;5049032;28;20397;-83
2022/09/07 11:46:59;;;;;;;2.13;1.10;;;21.30;99.90;;;;;;5037181;28;20094;-83
2022/09/07 11:49:25;;;;;;;0.80;0.60;;;21.30;99.90;;;;;;5069862;28;20041;-83
2022/09/07 11:51:55;;;;;;;1.17;0.77;;;21.40;99.90;;;;;;5066575;28;20048;-83
2022/09/07 11:54:40;;;;;;;0.85;0.60;;;21.40;99.90;;;;;;5049505;28;20582;-83
2022/09/07 11:57:09;;;;;;;1.65;1.00;;;21.40;99.90;;;;;;5081350;28;20134;-82
2022/09/07 11:59:55;;;;;;;0.60;0.60;;;21.40;99.90;;;;;;5049316;28;20115;-82
2022/09/07 12:02:43;;;;;;;1.58;0.93;;;21.50;99.90;;;;;;5076386;28;20045;-83
2022/09/07 12:05:23;;;;;;;1.50;0.93;;;21.50;99.90;;;;;;5062157;28;20081;-83
2022/09/07 12:07:52;;;;;;;1.17;0.73;;;21.50;99.90;;;;;;5046749;28;20041;-83
2022/09/07 12:10:41;;;;;;;0.52;0.50;;;21.50;99.90;;;;;;5049486;28;20120;-83
2022/09/07 12:13:19;;;;;;;1.38;0.80;;;21.50;99.90;;;;;;5040714;28;20453;-83
2022/09/07 12:16:04;;;;;;;0.98;0.77;;;21.60;99.90;;;;;;5046705;28;20042;-83
2022/09/07 12:18:46;;;;;;;0.93;0.65;;;21.60;99.90;;;;;;5048857;28;20051;-83
2022/09/07 12:21:38;;;;;;;0.90;0.68;;;21.70;99.90;;;;;;5033279;28;20515;-83
2022/09/07 12:24:25;;;;;;;1.00;0.65;;;21.90;99.90;;;;;;5045987;28;20040;-83
2022/09/07 12:26:52;;;;;;;0.40;0.40;;;21.90;99.90;;;;;;5065382;28;20473;-83
2022/09/07 12:29:22;;;;;;;1.17;0.80;;;21.80;99.90;;;;;;5033281;28;20041;-83
2022/09/07 12:31:52;;;;;;;0.80;0.68;;;21.80;99.90;;;;;;5065649;28;20044;-83
2022/09/07 12:34:31;;;;;;;0.95;0.70;;;21.90;99.90;;;;;;5073623;28;20037;-83
2022/09/07 12:37:21;;;;;;;1.48;0.70;;;22.00;99.90;;;;;;5081652;28;20075;-83
2022/09/07 12:39:49;;;;;;;1.33;0.90;;;22.20;99.90;;;;;;5065611;28;20052;-83
2022/09/07 12:42:28;;;;;;;1.08;0.80;;;22.40;99.90;;;;;;5027827;28;20045;-83
2022/09/07 12:45:27;;;;;;;1.30;0.70;;;22.50;99.90;;;;;;5029075;28;20467;-83
2022/09/07 12:48:00;;;;;;;0.50;0.43;;;22.70;99.90;;;;;;5036804;28;20073;-83
2022/09/07 12:50:32;;;;;;;0.57;0.45;;;22.70;99.90;;;;;;5029130;28;20042;-83
2022/09/07 12:53:35;;;;;;;1.08;0.75;;;22.70;99.90;;;;;;5028665;28;20520;-83
2022/09/07 12:56:15;;;;;;;0.40;0.40;;;22.70;99.90;;;;;;5028219;28;20145;-83
2022/09/07 12:59:05;;;;;;;0.60;0.60;;;22.80;99.90;;;;;;5061751;28;20045;-82
2022/09/07 13:02:00;;;;;;;0.65;0.50;;;22.80;99.90;;;;;;5045453;28;20046;-82
2022/09/07 13:04:57;;;;;;;0.80;0.60;;;22.70;99.90;;;;;;5064839;28;20073;-83
2022/09/07 13:07:38;;;;;;;0.88;0.65;;;22.60;99.90;;;;;;5020233;28;20054;-82
2022/09/07 13:10:29;;;;;;;1.33;0.70;;;22.60;99.90;;;;;;5063458;28;20054;-82
2022/09/07 13:13:17;;;;;;;0.63;0.45;;;22.60;99.90;;;;;;5075609;28;20437;-82
2022/09/07 13:16:12;;;;;;;1.55;0.80;;;22.60;99.90;;;;;;5052504;28;20432;-83
2022/09/07 13:18:45;;;;;;;1.80;0.90;;;22.50;99.90;;;;;;5068097;28;20065;-83
2022/09/07 13:21:13;;;;;;;1.00;0.65;;;22.40;99.90;;;;;;5052265;28;20048;-83
2022/09/07 13:23:50;;;;;;;1.48;0.77;;;22.50;99.90;;;;;;5057181;28;20041;-83
2022/09/07 13:26:58;;;;;;;0.38;0.38;;;22.60;99.90;;;;;;5050307;28;20037;-83